Time;durP1;ratioP1;P1;durP2;ratioP2;P2;SDS_P1;SDS_P2;PMS_P1;PMS_P2;Temp;Humidity;BMP_temperature;BMP_pressure;BME280_temperature;BME280_humidity;BME280_pressure;Samples;Min_cycle;Max_cycle;Signal;HPM_P1;HPM_P2
2024/01/30 00:03:52;;;;;;;0.53;0.53;;;5.70;99.60;;;;;;10450364;28;20213;-78
2024/01/30 00:08:54;;;;;;;0.50;0.50;;;5.70;99.80;;;;;;10446938;28;20201;-75
2024/01/30 00:13:58;;;;;;;0.50;0.50;;;5.70;99.70;;;;;;10451184;28;20213;-77
2024/01/30 00:19:02;;;;;;;0.40;0.40;;;5.70;99.70;;;;;;10451196;28;20205;-77
2024/01/30 00:24:05;;;;;;;0.50;0.50;;;5.70;99.90;;;;;;10451431;28;20225;-77
2024/01/30 00:29:08;;;;;;;0.40;0.40;;;5.60;99.70;;;;;;10452971;28;20220;-77
2024/01/30 00:34:11;;;;;;;0.40;0.40;;;5.60;99.90;;;;;;10452698;28;20228;-77
2024/01/30 00:39:15;;;;;;;0.50;0.50;;;5.50;99.90;;;;;;10451830;28;20511;-76
2024/01/30 00:44:19;;;;;;;0.40;0.40;;;5.50;99.90;;;;;;10469679;28;20246;-77
2024/01/30 00:49:21;;;;;;;0.50;0.50;;;5.50;99.90;;;;;;10470393;28;20589;-76
2024/01/30 00:54:23;;;;;;;0.50;0.50;;;5.40;99.90;;;;;;10470333;28;20201;-77
2024/01/30 00:59:27;;;;;;;0.40;0.40;;;5.40;99.90;;;;;;10468381;28;20188;-75
2024/01/30 01:04:29;;;;;;;0.50;0.50;;;5.40;99.90;;;;;;10469640;28;20270;-77
2024/01/30 01:09:32;;;;;;;0.40;0.40;;;5.50;99.90;;;;;;10468778;28;20238;-77
2024/01/30 01:14:36;;;;;;;0.60;0.60;;;5.40;99.90;;;;;;10469263;28;20217;-77
2024/01/30 01:19:38;;;;;;;0.50;0.50;;;5.40;99.90;;;;;;10465856;28;20215;-76
2024/01/30 01:24:40;;;;;;;0.50;0.50;;;5.40;99.90;;;;;;10463365;28;20598;-76
2024/01/30 01:29:45;;;;;;;0.60;0.60;;;5.40;99.90;;;;;;10468982;28;20188;-74
2024/01/30 01:34:47;;;;;;;0.50;0.50;;;5.40;99.90;;;;;;10468268;28;20216;-76
2024/01/30 01:39:50;;;;;;;0.50;0.50;;;5.50;99.90;;;;;;10469037;28;20212;-78
2024/01/30 01:44:53;;;;;;;0.40;0.40;;;5.50;99.90;;;;;;10472644;28;20307;-77
2024/01/30 01:49:56;;;;;;;0.50;0.50;;;5.50;99.90;;;;;;10477050;28;20200;-77
2024/01/30 01:54:58;;;;;;;0.50;0.50;;;5.40;99.90;;;;;;10471920;28;20213;-78
2024/01/30 02:00:03;;;;;;;0.50;0.50;;;5.40;99.90;;;;;;10480610;28;20380;-75
2024/01/30 02:05:11;;;;;;;0.40;0.40;;;5.40;99.90;;;;;;10454609;28;20225;-78
2024/01/30 02:10:14;;;;;;;0.40;0.40;;;5.40;99.90;;;;;;10457742;28;20255;-77
2024/01/30 02:15:18;;;;;;;0.40;0.40;;;5.40;99.90;;;;;;10455885;28;20710;-75
2024/01/30 02:20:21;;;;;;;0.40;0.40;;;5.40;99.90;;;;;;10456383;28;20258;-77
2024/01/30 02:25:34;;;;;;;0.47;0.47;;;5.40;99.90;;;;;;10453231;28;20278;-77
2024/01/30 02:30:36;;;;;;;0.50;0.50;;;5.40;99.90;;;;;;10455481;28;20251;-77
2024/01/30 02:35:39;;;;;;;0.60;0.60;;;5.40;99.90;;;;;;10454392;28;20216;-77
2024/01/30 02:40:42;;;;;;;0.50;0.50;;;5.40;99.90;;;;;;10455085;28;20205;-77
2024/01/30 02:45:45;;;;;;;0.40;0.40;;;5.30;99.90;;;;;;10452757;28;20228;-77
2024/01/30 02:50:47;;;;;;;0.50;0.50;;;5.30;99.90;;;;;;10455897;28;20747;-77
2024/01/30 02:55:51;;;;;;;0.60;0.60;;;5.40;99.90;;;;;;10457511;28;20224;-78
2024/01/30 03:00:53;;;;;;;0.50;0.50;;;5.40;99.70;;;;;;10458695;28;20615;-75
2024/01/30 03:05:55;;;;;;;0.40;0.40;;;5.40;99.60;;;;;;10457225;28;20598;-77
2024/01/30 03:10:59;;;;;;;0.40;0.40;;;5.40;99.90;;;;;;10457438;28;20200;-76
2024/01/30 03:16:02;;;;;;;0.40;0.40;;;5.40;99.60;;;;;;10454247;28;20210;-77
2024/01/30 03:21:05;;;;;;;0.50;0.50;;;5.40;99.50;;;;;;10456459;28;20278;-76
2024/01/30 03:26:10;;;;;;;0.50;0.50;;;5.40;99.60;;;;;;10454115;28;20737;-76
2024/01/30 03:31:15;;;;;;;0.40;0.40;;;5.30;99.50;;;;;;10456621;28;20197;-77
2024/01/30 03:36:17;;;;;;;0.60;0.60;;;5.30;99.40;;;;;;10450141;28;20213;-78
2024/01/30 03:41:21;;;;;;;0.47;0.47;;;5.20;99.50;;;;;;10437426;22;20707;-81
2024/01/30 03:46:24;;;;;;;0.40;0.40;;;5.20;99.60;;;;;;10404597;28;20644;-84
2024/01/30 03:51:26;;;;;;;0.50;0.50;;;5.20;99.70;;;;;;10409753;28;20218;-79
2024/01/30 03:56:30;;;;;;;0.50;0.50;;;5.10;99.50;;;;;;10403592;28;20194;-79
2024/01/30 04:01:32;;;;;;;0.40;0.40;;;5.10;99.50;;;;;;10380429;28;20266;-79
2024/01/30 04:06:35;;;;;;;0.70;0.70;;;5.10;99.50;;;;;;10352842;28;20431;-79
2024/01/30 04:11:38;;;;;;;0.90;0.90;;;5.00;99.20;;;;;;10348348;28;20207;-77
2024/01/30 04:16:40;;;;;;;0.50;0.50;;;4.90;99.40;;;;;;10347563;28;20191;-79
2024/01/30 04:21:43;;;;;;;0.80;0.80;;;4.80;99.50;;;;;;10345692;28;20704;-79
2024/01/30 04:26:46;;;;;;;0.70;0.70;;;4.70;99.50;;;;;;10349601;28;20579;-79
2024/01/30 04:31:49;;;;;;;0.70;0.70;;;4.70;99.70;;;;;;10351660;28;20211;-77
2024/01/30 04:36:51;;;;;;;0.67;0.67;;;4.70;99.80;;;;;;10347010;28;20621;-80
2024/01/30 04:41:55;;;;;;;0.80;0.80;;;4.70;99.80;;;;;;10369796;28;20227;-79
2024/01/30 04:46:58;;;;;;;0.73;0.73;;;4.60;99.80;;;;;;10346088;28;20699;-79
2024/01/30 04:52:01;;;;;;;0.70;0.70;;;4.60;99.80;;;;;;10345297;28;20633;-79
2024/01/30 04:57:09;;;;;;;0.70;0.70;;;4.60;99.80;;;;;;10347730;28;20198;-79
2024/01/30 05:02:11;;;;;;;0.80;0.80;;;4.50;99.80;;;;;;10350184;28;20295;-79
2024/01/30 05:07:13;;;;;;;0.30;0.30;;;4.50;99.90;;;;;;10348660;28;20218;-79
2024/01/30 05:12:17;;;;;;;0.20;0.20;;;4.50;99.90;;;;;;10344365;28;21260;-79
2024/01/30 05:17:19;;;;;;;1.00;1.00;;;4.50;99.90;;;;;;10356109;28;20195;-79
2024/01/30 05:22:22;;;;;;;0.90;0.90;;;4.40;99.90;;;;;;10355319;28;20592;-78
2024/01/30 05:27:25;;;;;;;0.47;0.47;;;4.40;99.90;;;;;;10350090;28;20214;-77
2024/01/30 05:32:28;;;;;;;1.00;1.00;;;4.40;99.90;;;;;;10344277;28;20202;-78
2024/01/30 05:37:30;;;;;;;0.90;0.90;;;4.30;99.90;;;;;;10348057;28;21234;-79
2024/01/30 05:42:34;;;;;;;0.50;0.50;;;4.30;99.90;;;;;;10347677;28;20305;-80
2024/01/30 05:47:38;;;;;;;0.70;0.70;;;4.30;99.90;;;;;;10361249;28;20225;-79
2024/01/30 05:52:41;;;;;;;0.70;0.70;;;4.30;99.90;;;;;;10342881;28;20276;-81
2024/01/30 05:57:44;;;;;;;0.80;0.80;;;4.40;99.90;;;;;;10341712;28;20191;-79
2024/01/30 06:02:47;;;;;;;0.70;0.70;;;4.40;99.90;;;;;;10340796;28;20730;-78
2024/01/30 06:07:49;;;;;;;0.70;0.70;;;4.50;99.90;;;;;;10345501;28;20305;-80
2024/01/30 06:12:53;;;;;;;0.70;0.70;;;4.50;99.90;;;;;;10346209;28;20708;-78
2024/01/30 06:17:55;;;;;;;0.50;0.50;;;4.50;99.90;;;;;;10343960;28;20205;-82
2024/01/30 06:22:57;;;;;;;0.27;0.27;;;4.50;99.90;;;;;;10342719;28;20207;-78
2024/01/30 06:28:01;;;;;;;0.60;0.60;;;4.50;99.90;;;;;;10346353;28;20207;-77
2024/01/30 06:33:04;;;;;;;0.60;0.60;;;4.50;99.90;;;;;;10352412;28;20269;-80
2024/01/30 06:38:06;;;;;;;0.50;0.50;;;4.50;99.90;;;;;;10350742;28;20199;-79
2024/01/30 06:43:11;;;;;;;0.40;0.40;;;4.50;99.90;;;;;;10352195;28;20230;-78
2024/01/30 06:48:13;;;;;;;0.60;0.60;;;4.50;99.90;;;;;;10353179;28;20203;-77
2024/01/30 06:53:15;;;;;;;0.63;0.63;;;4.40;99.80;;;;;;10356186;28;20214;-80
2024/01/30 06:58:19;;;;;;;0.40;0.40;;;4.40;99.90;;;;;;10351866;28;20195;-79
2024/01/30 07:03:21;;;;;;;0.50;0.50;;;4.40;99.90;;;;;;10350722;28;20621;-80
2024/01/30 07:08:24;;;;;;;0.20;0.20;;;4.40;99.90;;;;;;10352418;28;20257;-79
2024/01/30 07:13:28;;;;;;;0.60;0.60;;;4.40;99.90;;;;;;10352915;28;20560;-79
2024/01/30 07:18:31;;;;;;;0.50;0.50;;;4.50;99.90;;;;;;10347631;28;20195;-79
2024/01/30 07:23:34;;;;;;;0.50;0.50;;;4.50;99.90;;;;;;10370121;28;20297;-80
2024/01/30 07:28:38;;;;;;;0.50;0.50;;;4.50;99.90;;;;;;10385284;28;20222;-78
2024/01/30 07:33:40;;;;;;;0.50;0.50;;;4.50;99.90;;;;;;10384782;28;20654;-79
2024/01/30 07:38:42;;;;;;;0.40;0.40;;;4.40;99.90;;;;;;10382451;28;20226;-80
2024/01/30 07:43:46;;;;;;;0.60;0.60;;;4.40;99.90;;;;;;10384535;28;20257;-79
2024/01/30 07:48:56;;;;;;;0.20;0.20;;;4.50;99.90;;;;;;10381177;28;20227;-77
2024/01/30 07:53:59;;;;;;;0.50;0.50;;;4.60;99.90;;;;;;10388933;28;20261;-80
2024/01/30 07:59:03;;;;;;;0.50;0.50;;;4.70;99.90;;;;;;10389995;28;20572;-79
2024/01/30 08:04:05;;;;;;;0.20;0.20;;;4.80;99.90;;;;;;10381594;28;20313;-79
2024/01/30 08:09:08;;;;;;;0.50;0.50;;;4.80;99.90;;;;;;10380140;28;20228;-79
2024/01/30 08:14:13;;;;;;;0.40;0.40;;;4.90;99.90;;;;;;10378843;28;20222;-78
2024/01/30 08:19:16;;;;;;;0.30;0.30;;;5.00;99.90;;;;;;10379350;28;20235;-77
2024/01/30 08:24:18;;;;;;;0.50;0.50;;;5.20;99.90;;;;;;10379873;28;20210;-78
2024/01/30 08:29:22;;;;;;;0.67;0.67;;;5.30;99.90;;;;;;10378448;28;20213;-80
2024/01/30 08:34:24;;;;;;;0.30;0.30;;;5.60;99.90;;;;;;10377013;28;20265;-76
2024/01/30 08:39:27;;;;;;;0.40;0.40;;;5.80;99.90;;;;;;10377140;28;20238;-78
2024/01/30 08:44:30;;;;;;;0.40;0.40;;;6.00;99.90;;;;;;10384640;28;20214;-79
2024/01/30 08:49:33;;;;;;;0.37;0.37;;;6.20;99.90;;;;;;10380182;28;20221;-79
2024/01/30 08:54:35;;;;;;;0.50;0.50;;;6.40;99.90;;;;;;10375771;28;20268;-79
2024/01/30 08:59:39;;;;;;;0.50;0.50;;;6.60;99.90;;;;;;10375743;28;20214;-79
2024/01/30 09:04:42;;;;;;;0.47;0.47;;;6.70;99.90;;;;;;10372789;28;20633;-77
2024/01/30 09:09:44;;;;;;;0.37;0.37;;;6.80;99.90;;;;;;10372804;28;20226;-77
2024/01/30 09:14:48;;;;;;;0.40;0.40;;;6.90;99.90;;;;;;10372847;28;20221;-76
2024/01/30 09:19:51;;;;;;;0.40;0.40;;;7.00;99.90;;;;;;10373113;28;20230;-77
2024/01/30 09:24:53;;;;;;;0.30;0.30;;;7.10;99.90;;;;;;10364975;28;20218;-76
2024/01/30 09:29:57;;;;;;;0.40;0.40;;;7.20;99.90;;;;;;10371327;28;20233;-79
2024/01/30 09:34:59;;;;;;;0.50;0.50;;;7.30;99.90;;;;;;10370503;28;20202;-76
2024/01/30 09:40:01;;;;;;;0.50;0.50;;;7.40;99.90;;;;;;10370762;28;20234;-78
2024/01/30 09:45:06;;;;;;;0.60;0.60;;;7.50;99.90;;;;;;10369710;28;20222;-77
2024/01/30 09:50:09;;;;;;;0.40;0.40;;;7.60;99.90;;;;;;10369561;28;20221;-77
2024/01/30 09:55:12;;;;;;;0.50;0.50;;;7.70;99.90;;;;;;10367402;28;20677;-79
2024/01/30 10:00:17;;;;;;;0.40;0.40;;;7.80;99.90;;;;;;10452778;23;20617;-82
2024/01/30 10:05:20;;;;;;;0.50;0.50;;;7.90;99.90;;;;;;10502183;28;20224;-81
2024/01/30 10:10:23;;;;;;;0.50;0.50;;;8.00;99.90;;;;;;10487317;28;20275;-80
2024/01/30 10:15:29;;;;;;;0.30;0.30;;;8.10;99.90;;;;;;10478087;28;20246;-81
2024/01/30 10:20:32;;;;;;;0.40;0.40;;;8.30;99.90;;;;;;10491567;28;20225;-81
2024/01/30 10:25:34;;;;;;;0.40;0.40;;;8.40;99.90;;;;;;10478120;28;20209;-81
2024/01/30 10:30:38;;;;;;;0.50;0.50;;;8.50;99.90;;;;;;10489153;28;20232;-81
2024/01/30 10:35:40;;;;;;;0.47;0.47;;;8.60;99.90;;;;;;10481487;28;20250;-81
2024/01/30 10:40:44;;;;;;;0.40;0.40;;;8.70;99.90;;;;;;10489844;28;20267;-81
2024/01/30 10:45:50;;;;;;;0.30;0.30;;;8.80;99.90;;;;;;10463344;28;20231;-81
2024/01/30 10:50:56;;;;;;;0.47;0.47;;;8.90;99.80;;;;;;10464988;28;20274;-81
2024/01/30 10:56:00;;;;;;;0.47;0.47;;;8.90;99.80;;;;;;10464812;28;20315;-81
2024/01/30 11:01:05;;;;;;;0.40;0.40;;;9.00;99.80;;;;;;10466061;28;20706;-82
2024/01/30 11:06:13;;;;;;;0.30;0.30;;;9.10;99.90;;;;;;10464452;28;21057;-81
2024/01/30 11:11:18;;;;;;;0.37;0.37;;;9.10;99.90;;;;;;10467791;28;20228;-82
2024/01/30 11:16:22;;;;;;;0.40;0.40;;;9.20;99.70;;;;;;10466550;28;20792;-81
2024/01/30 11:21:26;;;;;;;0.50;0.50;;;9.30;99.70;;;;;;10468471;28;20237;-81
2024/01/30 11:26:29;;;;;;;0.53;0.53;;;9.40;99.60;;;;;;10466407;28;20239;-81
2024/01/30 11:31:33;;;;;;;0.50;0.50;;;9.40;99.80;;;;;;10463511;28;20225;-81
2024/01/30 11:36:38;;;;;;;0.13;0.13;;;9.50;99.90;;;;;;10469797;28;20662;-80
2024/01/30 11:41:42;;;;;;;0.20;0.20;;;9.50;99.90;;;;;;10463498;28;20718;-80
2024/01/30 11:46:45;;;;;;;0.30;0.30;;;9.60;99.90;;;;;;10465702;28;20222;-80
2024/01/30 11:51:48;;;;;;;0.30;0.30;;;9.60;99.80;;;;;;10462579;28;20224;-81
2024/01/30 11:56:51;;;;;;;0.40;0.40;;;9.60;99.90;;;;;;10458629;28;20255;-81
2024/01/30 12:01:54;;;;;;;0.40;0.40;;;9.70;99.90;;;;;;10463165;28;20259;-80
2024/01/30 12:06:57;;;;;;;0.30;0.30;;;9.80;99.90;;;;;;10459165;28;20718;-80
2024/01/30 12:11:59;;;;;;;0.40;0.40;;;9.80;99.90;;;;;;10466196;28;20225;-80
2024/01/30 12:17:03;;;;;;;0.30;0.30;;;9.80;99.90;;;;;;10461361;28;20235;-81
2024/01/30 12:22:06;;;;;;;0.40;0.40;;;9.90;99.90;;;;;;10469505;28;20225;-81
2024/01/30 12:27:08;;;;;;;0.40;0.40;;;9.90;99.90;;;;;;10460147;28;20271;-80
2024/01/30 12:32:17;;;;;;;0.40;0.40;;;9.90;99.90;;;;;;10478404;28;20228;-81
2024/01/30 12:37:22;;;;;;;0.30;0.30;;;9.90;99.90;;;;;;10466196;28;20259;-81
2024/01/30 12:42:24;;;;;;;0.30;0.30;;;9.90;99.90;;;;;;10470132;28;20193;-81
2024/01/30 12:47:28;;;;;;;0.30;0.30;;;9.90;99.90;;;;;;10461867;28;20212;-81
2024/01/30 12:52:30;;;;;;;0.50;0.50;;;9.90;99.90;;;;;;10471437;28;20201;-81
2024/01/30 12:57:33;;;;;;;0.30;0.30;;;10.00;99.90;;;;;;10460837;28;20687;-80
2024/01/30 13:02:37;;;;;;;0.40;0.40;;;10.00;99.90;;;;;;10471314;28;20209;-81
2024/01/30 13:07:39;;;;;;;0.40;0.40;;;10.00;99.70;;;;;;10460199;28;20213;-81
2024/01/30 13:12:41;;;;;;;0.20;0.20;;;10.10;99.50;;;;;;10472261;28;20829;-81
2024/01/30 13:17:47;;;;;;;0.20;0.20;;;10.00;99.30;;;;;;10460265;28;20205;-80
2024/01/30 13:22:50;;;;;;;0.40;0.40;;;10.00;99.40;;;;;;10460198;28;20246;-81
2024/01/30 13:27:52;;;;;;;0.30;0.30;;;9.90;99.90;;;;;;10474154;28;20283;-80
2024/01/30 13:32:56;;;;;;;0.40;0.40;;;10.00;99.90;;;;;;10462812;28;20193;-81
2024/01/30 13:37:58;;;;;;;0.33;0.33;;;10.00;99.80;;;;;;10477213;28;20213;-81
2024/01/30 13:43:01;;;;;;;0.30;0.30;;;10.00;99.60;;;;;;10469226;28;20201;-81
2024/01/30 13:48:06;;;;;;;0.23;0.23;;;10.00;99.50;;;;;;10484985;28;20632;-81
2024/01/30 13:53:08;;;;;;;0.30;0.30;;;10.00;99.10;;;;;;10469489;28;20513;-81
2024/01/30 13:58:10;;;;;;;0.30;0.30;;;10.10;98.90;;;;;;10481968;28;20217;-80
2024/01/30 14:03:14;;;;;;;0.30;0.30;;;10.20;99.10;;;;;;10466824;28;20550;-81
2024/01/30 14:08:16;;;;;;;0.30;0.30;;;10.20;98.90;;;;;;10483480;28;20217;-81
2024/01/30 14:13:19;;;;;;;0.10;0.10;;;10.20;99.00;;;;;;10466572;28;20270;-80
2024/01/30 14:18:22;;;;;;;0.30;0.30;;;10.10;99.20;;;;;;10482864;28;20205;-81
2024/01/30 14:23:25;;;;;;;0.40;0.40;;;10.00;99.30;;;;;;10465627;28;20201;-80
2024/01/30 14:28:27;;;;;;;0.10;0.10;;;9.90;99.90;;;;;;10464326;28;20220;-81
2024/01/30 14:33:31;;;;;;;0.60;0.60;;;9.80;99.90;;;;;;10484610;28;20728;-81
2024/01/30 14:38:33;;;;;;;0.33;0.33;;;9.80;99.90;;;;;;10465587;28;20221;-80
2024/01/30 14:43:37;;;;;;;0.20;0.20;;;9.80;99.90;;;;;;10486939;28;20197;-80
2024/01/30 14:48:41;;;;;;;0.30;0.30;;;9.70;99.90;;;;;;10459581;28;20217;-80
2024/01/30 14:53:43;;;;;;;0.40;0.40;;;9.60;99.90;;;;;;10442355;28;20614;-80
2024/01/30 14:58:49;;;;;;;0.30;0.30;;;9.60;99.90;;;;;;10470778;28;20222;-80
2024/01/30 15:03:55;;;;;;;0.30;0.30;;;9.70;99.90;;;;;;10447096;28;20193;-80
2024/01/30 15:08:57;;;;;;;0.30;0.30;;;9.70;99.90;;;;;;10447921;28;20259;-79
2024/01/30 15:13:59;;;;;;;0.40;0.40;;;9.70;99.90;;;;;;10446563;28;20197;-81
2024/01/30 15:19:04;;;;;;;0.50;0.50;;;9.70;99.90;;;;;;10448553;28;20568;-79
2024/01/30 15:24:07;;;;;;;0.40;0.40;;;9.60;99.90;;;;;;10445971;28;20204;-79
2024/01/30 15:29:09;;;;;;;0.50;0.50;;;9.60;99.90;;;;;;10467037;28;20220;-79
2024/01/30 15:34:13;;;;;;;0.50;0.50;;;9.70;99.90;;;;;;10488396;28;20219;-79
2024/01/30 15:39:17;;;;;;;0.30;0.30;;;9.80;99.90;;;;;;10489053;28;20210;-78
2024/01/30 15:44:19;;;;;;;0.30;0.30;;;9.90;99.90;;;;;;10467969;28;20197;-79
2024/01/30 15:49:23;;;;;;;0.40;0.40;;;9.90;99.90;;;;;;10456649;28;20228;-79
2024/01/30 15:54:25;;;;;;;0.40;0.40;;;10.00;99.90;;;;;;10460847;28;20448;-79
2024/01/30 15:59:28;;;;;;;0.30;0.30;;;10.00;99.90;;;;;;10460985;28;20237;-79
2024/01/30 16:04:31;;;;;;;0.50;0.50;;;10.00;99.90;;;;;;10455589;28;20244;-79
2024/01/30 16:09:34;;;;;;;0.40;0.40;;;10.00;99.90;;;;;;10461300;28;20803;-79
2024/01/30 16:14:37;;;;;;;0.40;0.40;;;10.00;99.90;;;;;;10456070;28;20212;-79
2024/01/30 16:19:40;;;;;;;0.50;0.50;;;10.00;99.90;;;;;;10464695;28;20244;-79
2024/01/30 16:24:44;;;;;;;0.37;0.37;;;9.90;99.90;;;;;;10466089;28;20198;-79
2024/01/30 16:29:46;;;;;;;0.20;0.20;;;9.90;99.90;;;;;;10457430;28;20598;-78
2024/01/30 16:34:50;;;;;;;0.50;0.50;;;9.80;99.90;;;;;;10476208;28;20194;-79
2024/01/30 16:39:52;;;;;;;0.40;0.40;;;9.80;99.90;;;;;;10457711;28;20306;-80
2024/01/30 16:44:55;;;;;;;0.17;0.17;;;9.70;99.90;;;;;;10441506;28;20214;-80
2024/01/30 16:49:58;;;;;;;0.30;0.30;;;9.60;99.90;;;;;;10440712;28;20218;-80
2024/01/30 16:55:01;;;;;;;0.40;0.40;;;9.60;99.90;;;;;;10430165;28;20198;-79
2024/01/30 17:00:05;;;;;;;0.50;0.50;;;9.60;99.90;;;;;;10444425;28;20217;-80
2024/01/30 17:05:09;;;;;;;0.50;0.50;;;9.60;99.90;;;;;;10449921;28;20603;-80
2024/01/30 17:10:13;;;;;;;0.20;0.20;;;9.50;99.90;;;;;;10459171;28;20240;-80
2024/01/30 17:15:15;;;;;;;0.30;0.30;;;9.50;99.90;;;;;;10462696;28;20197;-80
2024/01/30 17:20:19;;;;;;;0.50;0.50;;;9.50;99.90;;;;;;10446008;28;20252;-80
2024/01/30 17:25:23;;;;;;;0.50;0.50;;;9.40;99.90;;;;;;10444956;28;20207;-80
2024/01/30 17:30:25;;;;;;;0.50;0.50;;;9.40;99.90;;;;;;10457308;28;20727;-80
2024/01/30 17:35:29;;;;;;;0.50;0.50;;;9.40;99.90;;;;;;10452862;28;20628;-80
2024/01/30 17:40:32;;;;;;;0.40;0.40;;;9.40;99.90;;;;;;10454015;28;20644;-81
2024/01/30 17:45:37;;;;;;;0.47;0.47;;;9.40;99.90;;;;;;10454215;28;20193;-80
2024/01/30 17:50:40;;;;;;;0.50;0.50;;;9.40;99.90;;;;;;10459988;28;20258;-80
2024/01/30 17:55:43;;;;;;;0.30;0.30;;;9.40;99.90;;;;;;10454134;28;20204;-80
2024/01/30 18:00:45;;;;;;;0.40;0.40;;;9.40;99.90;;;;;;10460012;28;20628;-80
2024/01/30 18:05:49;;;;;;;0.40;0.40;;;9.40;99.90;;;;;;10456668;28;20254;-79
2024/01/30 18:10:51;;;;;;;0.53;0.53;;;9.30;99.90;;;;;;10462973;28;20229;-80
2024/01/30 18:15:53;;;;;;;0.50;0.50;;;9.30;99.90;;;;;;10449738;28;20224;-78
2024/01/30 18:20:57;;;;;;;0.50;0.50;;;9.30;99.90;;;;;;10459284;28;20224;-78
2024/01/30 18:26:00;;;;;;;0.40;0.40;;;9.40;99.90;;;;;;10458009;28;20204;-79
2024/01/30 18:31:03;;;;;;;0.50;0.50;;;9.30;99.80;;;;;;10466695;28;20229;-78
2024/01/30 18:36:07;;;;;;;0.70;0.70;;;9.30;99.80;;;;;;10456403;28;20201;-79
2024/01/30 18:41:09;;;;;;;0.40;0.40;;;9.30;99.90;;;;;;10462557;28;20227;-78
2024/01/30 18:46:12;;;;;;;0.50;0.50;;;9.30;99.90;;;;;;10454948;28;20205;-78
2024/01/30 18:51:17;;;;;;;0.50;0.50;;;9.30;99.90;;;;;;10443352;28;20233;-78
2024/01/30 18:56:19;;;;;;;0.17;0.17;;;9.40;99.90;;;;;;10464271;28;20205;-79
2024/01/30 19:01:22;;;;;;;0.60;0.60;;;9.30;99.90;;;;;;10464018;28;20229;-78
2024/01/30 19:06:26;;;;;;;0.50;0.50;;;9.30;99.90;;;;;;10462039;28;20252;-78
2024/01/30 19:11:29;;;;;;;0.50;0.50;;;9.30;99.90;;;;;;10446788;28;20229;-78
2024/01/30 19:16:31;;;;;;;0.50;0.50;;;9.30;99.90;;;;;;10454099;28;20194;-78
2024/01/30 19:21:35;;;;;;;0.53;0.53;;;9.40;99.90;;;;;;10443767;28;20220;-78
2024/01/30 19:26:38;;;;;;;0.50;0.50;;;9.40;99.90;;;;;;10457101;28;20594;-78
2024/01/30 19:31:40;;;;;;;0.60;0.60;;;9.40;99.90;;;;;;10464996;28;20229;-79
2024/01/30 19:36:44;;;;;;;0.60;0.60;;;9.40;99.90;;;;;;10443265;28;20267;-80
2024/01/30 19:41:46;;;;;;;0.70;0.70;;;9.40;99.90;;;;;;10450743;28;20210;-79
2024/01/30 19:46:49;;;;;;;0.50;0.50;;;9.40;99.90;;;;;;10451952;28;20243;-79
2024/01/30 19:51:52;;;;;;;0.60;0.60;;;9.40;99.90;;;;;;10452004;28;20773;-80
2024/01/30 19:56:55;;;;;;;0.60;0.60;;;9.40;99.90;;;;;;10448834;28;20201;-80
2024/01/30 20:01:58;;;;;;;0.50;0.50;;;9.40;99.90;;;;;;10455192;28;20221;-80
2024/01/30 20:07:02;;;;;;;0.60;0.60;;;9.40;99.90;;;;;;10437417;28;20194;-80
2024/01/30 20:12:05;;;;;;;0.50;0.50;;;9.40;99.90;;;;;;10437709;28;20221;-80
2024/01/30 20:17:07;;;;;;;0.60;0.60;;;9.40;99.90;;;;;;10441926;28;20196;-81
2024/01/30 20:22:11;;;;;;;0.60;0.60;;;9.40;99.90;;;;;;10444727;28;20216;-80
2024/01/30 20:27:13;;;;;;;0.50;0.50;;;9.40;99.90;;;;;;10437463;28;20182;-80
2024/01/30 20:32:16;;;;;;;0.50;0.50;;;9.40;99.90;;;;;;10436595;28;20695;-80
2024/01/30 20:37:20;;;;;;;0.50;0.50;;;9.30;99.90;;;;;;10436215;28;20186;-80
2024/01/30 20:42:23;;;;;;;0.50;0.50;;;9.20;99.90;;;;;;10437352;28;20213;-79
2024/01/30 20:47:26;;;;;;;0.60;0.60;;;9.20;99.90;;;;;;10435827;28;20668;-79
2024/01/30 20:52:29;;;;;;;0.70;0.70;;;9.10;99.90;;;;;;10437859;28;20220;-81
2024/01/30 20:57:32;;;;;;;0.80;0.80;;;9.00;99.90;;;;;;10440914;28;20232;-80
2024/01/30 21:02:37;;;;;;;0.60;0.60;;;9.00;99.90;;;;;;10440847;28;20193;-80
2024/01/30 21:07:40;;;;;;;0.60;0.60;;;8.90;99.90;;;;;;10440389;28;20213;-80
2024/01/30 21:12:43;;;;;;;0.60;0.60;;;8.80;99.90;;;;;;10443107;28;20193;-81
2024/01/30 21:17:45;;;;;;;0.70;0.70;;;8.70;99.90;;;;;;10439689;28;20213;-80
2024/01/30 21:22:49;;;;;;;0.60;0.60;;;8.60;99.90;;;;;;10430383;28;20194;-80
2024/01/30 21:27:51;;;;;;;0.63;0.63;;;8.60;99.90;;;;;;10448273;28;20228;-79
2024/01/30 21:32:54;;;;;;;0.50;0.50;;;8.60;99.90;;;;;;10444999;28;20206;-79
2024/01/30 21:37:58;;;;;;;0.50;0.50;;;8.60;99.90;;;;;;10447871;28;20251;-81
2024/01/30 21:43:01;;;;;;;0.50;0.50;;;8.60;99.90;;;;;;10472240;28;20204;-81
2024/01/30 21:48:06;;;;;;;0.40;0.40;;;8.60;99.90;;;;;;10462130;28;20721;-80
2024/01/30 21:53:10;;;;;;;0.50;0.50;;;8.70;99.90;;;;;;10477508;28;20223;-80
2024/01/30 21:58:12;;;;;;;0.40;0.40;;;8.70;99.90;;;;;;10475821;28;20225;-81
2024/01/30 22:03:14;;;;;;;0.30;0.30;;;8.80;99.90;;;;;;10469338;22;20237;-77
2024/01/30 22:08:21;;;;;;;0.50;0.50;;;8.80;99.90;;;;;;10420505;28;20209;-78
2024/01/30 22:13:24;;;;;;;0.30;0.30;;;8.80;99.90;;;;;;10411211;28;20249;-77
2024/01/30 22:18:26;;;;;;;0.50;0.50;;;8.80;99.90;;;;;;10376569;28;20194;-77
2024/01/30 22:23:30;;;;;;;0.40;0.40;;;8.90;99.90;;;;;;10401377;28;20210;-77
2024/01/30 22:28:33;;;;;;;0.50;0.50;;;8.90;99.90;;;;;;10390685;28;20711;-77
2024/01/30 22:33:36;;;;;;;0.50;0.50;;;8.90;99.90;;;;;;10381142;28;20249;-78
2024/01/30 22:38:40;;;;;;;0.50;0.50;;;8.90;99.90;;;;;;10406458;28;20679;-78
2024/01/30 22:43:42;;;;;;;0.50;0.50;;;8.90;99.90;;;;;;10406147;28;20240;-79
2024/01/30 22:48:45;;;;;;;0.63;0.63;;;8.90;99.90;;;;;;10384291;28;20218;-78
2024/01/30 22:53:49;;;;;;;0.70;0.70;;;8.90;99.90;;;;;;10397588;28;20241;-78
2024/01/30 22:58:51;;;;;;;0.50;0.50;;;8.90;99.90;;;;;;10387511;28;20679;-79
2024/01/30 23:03:54;;;;;;;0.40;0.40;;;8.90;99.90;;;;;;10399801;28;20230;-77
2024/01/30 23:08:58;;;;;;;0.40;0.40;;;8.90;99.90;;;;;;10397305;28;20293;-77
2024/01/30 23:14:00;;;;;;;0.70;0.70;;;8.90;99.90;;;;;;10397521;28;20221;-78
2024/01/30 23:19:04;;;;;;;0.50;0.50;;;8.80;99.90;;;;;;10397291;28;20198;-79
2024/01/30 23:24:07;;;;;;;0.60;0.60;;;8.80;99.90;;;;;;10397507;28;20703;-78
2024/01/30 23:29:10;;;;;;;0.60;0.60;;;8.80;99.90;;;;;;10402671;28;20217;-79
2024/01/30 23:34:12;;;;;;;0.50;0.50;;;8.80;99.90;;;;;;10419113;28;20210;-78
2024/01/30 23:39:16;;;;;;;0.70;0.70;;;8.80;99.90;;;;;;10397005;28;20583;-78
2024/01/30 23:44:18;;;;;;;0.50;0.50;;;8.80;99.90;;;;;;10392399;28;20218;-79
2024/01/30 23:49:21;;;;;;;0.60;0.60;;;8.80;99.90;;;;;;10392335;28;20221;-77
2024/01/30 23:54:25;;;;;;;0.67;0.67;;;8.90;99.90;;;;;;10372661;28;20219;-78
2024/01/30 23:59:27;;;;;;;0.60;0.60;;;8.90;99.90;;;;;;10385012;28;20186;-77
